• Join FlightAware (Why Join?)
  • Login
  • US Flag 
06:20AM EDT


 

Airport Tracker/Info


-or-


 

Live Flight TrackerFlight Track Log ✈ EJA328 ✈ 22-Mar-2014 ✈ KPHX - KGJT

Flight Track Log - Related Links

Times and Time Zones

All times are in EDT time to prevent confusion due to time zone crossing. See the EJA328 flight status page for this flight to view local times or setup timezone preferences in your user account.

Time Position Orientation Groundspeed Altitude Reporting Facility
EDT Latitude Longitude Course Direction KTS MPH feet Rate Location/Type
02:51PM 33.5550 -111.8027 North 12,600  Level FlightAware ADS-B (KDMA)
02:52PM 33.5704 -111.8004 North 305 351 13,400 2,460 Climbing FlightAware ADS-B (KDMA)
02:52PM 33.6139 -111.7939 North 324 373 14,300 1,920 Climbing FlightAware ADS-B (KDMA)
02:53PM 33.6634 -111.7866 North 354 407 15,400 2,040 Climbing FlightAware ADS-B (KDMA)
02:54PM 33.8086 -111.7650 North 386 444 18,300 2,220 Climbing FlightAware ADS-B (KDMA)
02:55PM 33.8984 -111.7515 North 391 450 21,100 2,520 Climbing FlightAware ADS-B (KPRC)
02:57PM 34.0754 -111.7195 17° North 396 456 24,700 2,400 Climbing FlightAware ADS-B (KPRC)
02:58PM 34.1859 -111.6757 18° North 404 465 26,900 1,860 Climbing FlightAware ADS-B (KPRC)
02:58PM 34.2437 -111.6530 18° North 417 480 27,700 1,500 Climbing FlightAware ADS-B (KPRC)
02:59PM 34.3294 -111.6191 18° North 431 496 28,900 1,500 Climbing FlightAware ADS-B (KPRC)
03:00PM 34.4413 -111.5747 18° North 444 511 30,400 1,500 Climbing FlightAware ADS-B (KPRC)
03:00PM 34.5036 -111.5499 18° North 449 517 31,100 1,200 Climbing FlightAware ADS-B (KPRC)
03:01PM 34.5700 -111.5083 18° North 454 522 31,900 1,140 Climbing Albuquerque Center
03:07PM 35.0649 -110.7950 39° Northeast 467 537 38,700 960 Climbing FlightAware ADS-B (KBDG)
03:09PM 35.3265 -110.6218 27° Northeast 455 524 40,100 300 Climbing FlightAware ADS-B (KBDG)
03:14PM 35.9541 -110.2602 20° North 478 550 41,000 120 Climbing FlightAware ADS-B (KBDG)
03:15PM 36.0910 -110.1980 20° North 478 550 41,000  Level FlightAware ADS-B (KBDG)
03:17PM 36.2204 -110.1392 20° North 480 552 41,000  Level FlightAware ADS-B (KBDG)
03:17PM 36.3249 -110.0916 20° North 479 551 41,000  Level FlightAware ADS-B (KBDG)
03:20PM 36.6026 -109.9642 20° North 477 549 41,000  Level FlightAware ADS-B (KMTJ)
03:21PM 36.7474 -109.8974 20° North 478 550 41,000  Level FlightAware ADS-B (KBDG)
03:22PM 36.8372 -109.8559 20° North 479 551 41,000  Level FlightAware ADS-B (KMTJ)
03:23PM 37.0108 -109.7753 20° North 479 551 41,000  Level FlightAware ADS-B (KMTJ)
03:24PM 37.1080 -109.7299 21° North 479 551 41,000  Level FlightAware ADS-B (KMTJ)
03:24PM 37.1771 -109.6977 21° North 477 549 41,000  Level FlightAware ADS-B (KMTJ)
03:25PM 37.2396 -109.6684 21° North 476 548 41,000  Level FlightAware ADS-B (KMTJ)
03:25PM 37.2850 -109.6471 21° North 475 547 41,000  Level FlightAware ADS-B (KMTJ)
03:26PM 37.4064 -109.5901 21° North 476 548 41,000  Level FlightAware ADS-B (KMTJ)
03:27PM 37.4718 -109.5592 21° North 477 549 41,000  Level FlightAware ADS-B (KMTJ)
03:27PM 37.5429 -109.5256 21° North 474 545 41,000  Level FlightAware ADS-B (KBDG)
03:28PM 37.6130 -109.4924 21° North 473 544 41,000  Level FlightAware ADS-B (KMTJ)
03:28PM 37.6962 -109.4530 21° North 473 544 41,000  Level FlightAware ADS-B (KMTJ)
03:29PM 37.7663 -109.4196 21° North 473 544 41,000  Level FlightAware ADS-B (KMTJ)
03:30PM 37.8452 -109.3820 21° North 473 544 41,000  Level FlightAware ADS-B (KMTJ)
03:30PM 37.9080 -109.3521 21° North 472 543 41,000  Level FlightAware ADS-B (KMTJ)
03:31PM 37.9774 -109.3189 21° North 470 541 41,000  Level FlightAware ADS-B (KMTJ)
03:31PM 38.0470 -109.2856 21° North 472 543 41,000  Level FlightAware ADS-B (KMTJ)
03:32PM 38.1388 -109.2415 21° North 473 544 41,000 -120 Level FlightAware ADS-B (KMTJ)
03:33PM 38.2039 -109.2102 21° North 474 545 40,900 -840 Descending FlightAware ADS-B (KMTJ)
03:33PM 38.2663 -109.1802 21° North 482 555 40,200 -1,620 Descending FlightAware ADS-B (KMTJ)
03:34PM 38.3282 -109.1501 21° North 473 544 39,300 -1,800 Descending FlightAware ADS-B (KMTJ)
03:34PM 38.3887 -109.1207 21° North 459 528 38,400 -1,740 Descending FlightAware ADS-B (KMTJ)
03:35PM 38.4477 -109.0920 21° North 446 513 37,600 -1,620 Descending FlightAware ADS-B (KMTJ)
03:35PM 38.5063 -109.0635 21° North 436 502 36,800 -1,620 Descending FlightAware ADS-B (KMTJ)
03:36PM 38.5626 -109.0363 21° North 435 501 36,000 -1,620 Descending FlightAware ADS-B (KMTJ)
03:36PM 38.6183 -109.0093 21° North 448 516 35,200 -1,620 Descending FlightAware ADS-B (KMTJ)
03:37PM 38.6815 -108.9786 21° North 459 528 34,400 -1,620 Descending FlightAware ADS-B (KMTJ)
03:37PM 38.7410 -108.9494 21° North 457 526 33,600 -1,620 Descending FlightAware ADS-B (KMTJ)
03:38PM 38.8136 -108.9136 21° North 448 516 32,600 -1,620 Descending FlightAware ADS-B (KMTJ)
03:38PM 38.8990 -108.8716 21° North 444 511 31,400 -1,620 Descending FlightAware ADS-B (KMTJ)
03:39PM 38.9591 -108.8421 21° North 446 513 30,600 -1,620 Descending FlightAware ADS-B (KMTJ)
03:40PM 39.0365 -108.7939 35° Northeast 462 532 29,500 -1,680 Descending FlightAware ADS-B (KMTJ)
03:40PM 39.0798 -108.7449 47° Northeast 471 542 28,700 -1,620 Descending FlightAware ADS-B (KMTJ)
03:41PM 39.1133 -108.6874 58° Northeast 485 558 28,100 -1,500 Descending FlightAware ADS-B (KMTJ)
03:41PM 39.1616 -108.5934 56° Northeast 480 552 27,100 -1,500 Descending FlightAware ADS-B (KMTJ)
03:42PM 39.1984 -108.5229 56° Northeast 471 542 26,400 -1,380 Descending FlightAware ADS-B (KMTJ)
03:42PM 39.2350 -108.4520 56° Northeast 459 528 25,700 -1,440 Descending FlightAware ADS-B (KMTJ)
03:42PM 39.2507 -108.4261 49° Northeast 454 522 25,400 -1,200 Descending FlightAware ADS-B (KMTJ)
03:43PM 39.2783 -108.3934 37° Northeast 449 517 25,100 -660 Descending FlightAware ADS-B (KMTJ)
03:43PM 39.3137 -108.3666 26° Northeast 447 514 25,000 -120 Descending FlightAware ADS-B (KMTJ)
03:44PM 39.3671 -108.3340 25° Northeast 454 522 25,000  Level FlightAware ADS-B (KMTJ)
03:44PM 39.4266 -108.2977 25° Northeast 459 528 25,000  Level FlightAware ADS-B (KMTJ)
03:45PM 39.4891 -108.2592 26° Northeast 461 531 25,000  Level FlightAware ADS-B (KMTJ)
03:45PM 39.5517 -108.2204 26° Northeast 463 533 25,000  Level FlightAware ADS-B (KMTJ)
03:46PM 39.6118 -108.1868 17° North 453 521 25,000  Level FlightAware ADS-B (KMTJ)
03:46PM 39.6298 -108.1813 10° North 446 513 25,000  Level FlightAware ADS-B (KMTJ)
03:46PM 39.6788 -108.1780 356° North 427 491 25,000  Level FlightAware ADS-B (KMTJ)
03:47PM 39.7381 -108.1920 349° North 401 461 25,000  Level FlightAware ADS-B (KMTJ)
03:47PM 39.7917 -108.2052 350° North 391 450 25,000  Level FlightAware ADS-B (KMTJ)
03:48PM 39.8442 -108.2177 350° North 379 436 25,000  Level FlightAware ADS-B (KMTJ)
03:48PM 39.8953 -108.2298 350° North 372 428 25,000  Level FlightAware ADS-B (KMTJ)
03:49PM 39.9300 -108.2382 349° North 369 425 25,000  Level FlightAware ADS-B (KMTJ)
03:49PM 40.0154 -108.2592 349° North 364 419 25,000  Level FlightAware ADS-B (KBDG)
03:50PM 40.0724 -108.2734 349° North 354 407 25,000  Level FlightAware ADS-B (KMTJ)
03:50PM 40.1058 -108.2819 349° North 351 404 25,000  Level FlightAware ADS-B (KMTJ)
03:52PM 40.2240 -108.3118 349° North 354 407 25,000  Level FlightAware ADS-B (KBDG)
03:53PM 40.3253 -108.3132 13° North 367 422 25,000  Level FlightAware ADS-B (KBDG)
03:53PM 40.3773 -108.2860 33° Northeast 368 423 25,000  Level FlightAware ADS-B (KMTJ)
03:54PM 40.4412 -108.2105 54° Northeast 370 426 25,000  Level FlightAware ADS-B (KMTJ)
03:55PM 40.4712 -108.1282 75° East 372 428 25,000  Level FlightAware ADS-B (KBDG)
03:56PM 40.4703 -107.9847 106° East 367 422 25,000  Level FlightAware ADS-B (KBDG)
03:58PM 40.3476 -107.8133 162° South 324 373 25,000 -240 Level FlightAware ADS-B (KBDG)
03:59PM 40.4412 -108.2105 188° South 292 336 24,200 -300 Descending FlightAware ADS-B (KMTJ)
04:01PM 40.1332 -107.8699 213° Southwest 242 278 24,000 -120 Descending FlightAware ADS-B (KBDG)
04:02PM 40.0715 -107.9216 213° Southwest 240 276 24,000  Level FlightAware ADS-B (KMTJ)
04:02PM 40.0475 -107.9417 213° Southwest 242 278 24,000  Level FlightAware ADS-B (KMTJ)
04:02PM 40.0192 -107.9611 195° South 255 293 24,000  Level FlightAware ADS-B (KMTJ)
04:03PM 40.0073 -107.9633 183° South 266 306 24,000  Level FlightAware ADS-B (KMTJ)
04:03PM 39.9941 -107.9623 172° South 282 325 24,000  Level FlightAware ADS-B (KMTJ)
04:03PM 39.9806 -107.9572 161° South 298 343 24,000  Level FlightAware ADS-B (KMTJ)
04:03PM 39.9690 -107.9489 148° Southeast 315 362 24,000  Level FlightAware ADS-B (KMTJ)
04:03PM 39.9573 -107.9354 133° Southeast 336 387 24,000 -600 Level FlightAware ADS-B (KMTJ)
04:03PM 39.9487 -107.9187 119° Southeast 349 402 23,800 -1,020 Descending FlightAware ADS-B (KMTJ)
04:04PM 39.9424 -107.8755 88° East 373 429 23,500 -840 Descending FlightAware ADS-B (KMTJ)
04:04PM 39.9473 -107.8088 86° East 374 430 23,100 -540 Descending FlightAware ADS-B (KMTJ)
04:05PM 39.9503 -107.7405 87° East 360 414 23,000 -120 Descending FlightAware ADS-B (KMTJ)
04:05PM 39.9538 -107.6546 87° East 356 410 23,000  Level FlightAware ADS-B (KMTJ)
04:06PM 39.9526 -107.5859 108° East 359 413 23,000  Level FlightAware ADS-B (KMTJ)
04:06PM 39.9432 -107.5643 126° Southeast 345 397 23,000  Level FlightAware ADS-B (KMTJ)
04:06PM 39.9384 -107.5579 146° Southeast 327 376 23,000  Level FlightAware ADS-B (KMTJ)
04:07PM 39.9080 -107.5435 181° South 299 344 23,000  Level FlightAware ADS-B (KMTJ)
04:07PM 39.8921 -107.5446 185° South 297 342 23,000  Level FlightAware ADS-B (KMTJ)
04:07PM 39.8782 -107.5486 197° South 290 334 23,000  Level FlightAware ADS-B (KMTJ)
04:07PM 39.8659 -107.5569 213° Southwest 283 326 23,000  Level FlightAware ADS-B (KMTJ)
04:08PM 39.8478 -107.5790 225° Southwest 281 323 23,000  Level FlightAware ADS-B (KMTJ)
04:08PM 39.8265 -107.6043 223° Southwest 287 330 23,000  Level FlightAware ADS-B (KMTJ)
04:08PM 39.7942 -107.6475 226° Southwest 289 333 23,000  Level FlightAware ADS-B (KMTJ)
04:09PM 39.7658 -107.6857 226° Southwest 289 333 23,000  Level FlightAware ADS-B (KMTJ)
04:10PM 39.7373 -107.7235 226° Southwest 289 333 23,000  Level FlightAware ADS-B (KMTJ)
04:10PM 39.7067 -107.7641 226° Southwest 290 334 23,000  Level FlightAware ADS-B (KMTJ)
04:11PM 39.6771 -107.8032 226° Southwest 290 334 23,000 -420 Level FlightAware ADS-B (KMTJ)
04:11PM 39.6481 -107.8415 226° Southwest 284 327 22,600 -900 Descending FlightAware ADS-B (KMTJ)
04:12PM 39.6178 -107.8814 226° Southwest 298 343 22,100 -840 Descending FlightAware ADS-B (KMTJ)
04:12PM 39.5856 -107.9239 226° Southwest 306 352 21,700 -900 Descending FlightAware ADS-B (KMTJ)
04:13PM 39.5546 -107.9647 226° Southwest 306 352 21,200 -1,320 Descending FlightAware ADS-B (KMTJ)
04:13PM 39.5255 -108.0028 225° Southwest 291 335 20,400 -1,680 Descending FlightAware ADS-B (KMTJ)
04:14PM 39.4958 -108.0416 225° Southwest 284 327 19,500 -1,740 Descending FlightAware ADS-B (KMTJ)
04:14PM 39.4610 -108.0872 225° Southwest 274 315 18,300 -1,860 Descending FlightAware ADS-B (KMTJ)
04:15PM 39.4325 -108.1245 225° Southwest 266 306 17,300 -2,100 Descending FlightAware ADS-B (KMTJ)
04:15PM 39.4056 -108.1598 228° Southwest 259 298 16,200 -1,980 Descending FlightAware ADS-B (KBDG)
04:16PM 39.3861 -108.1972 237° Southwest 251 289 15,300 -1,920 Descending FlightAware ADS-B (KMTJ)
04:16PM 39.3673 -108.2339 237° Southwest 250 288 14,300 -2,160 Descending FlightAware ADS-B (KMTJ)
04:16PM 39.3645 -108.2394 237° Southwest 250 288 14,100 -2,100 Descending FlightAware ADS-B (KMTJ)
04:17PM 39.3354 -108.2958 236° Southwest 250 288 12,600 -1,620 Descending FlightAware ADS-B (KMTJ)
04:18PM 39.2888 -108.3899 238° Southwest 248 285 10,900 -1,020 Descending FlightAware ADS-B (KBDG)
04:20PM 39.2397 -108.4914 238° Southwest 254 292 10,100 -1,020 Descending Denver Center
04:21PM 39.2275 -108.5711 259° West 218 251 8,600 -1,380 Descending Denver Center
04:22PM 39.2567 -108.6319 302° West 201 231 7,300 -1,020 Descending Denver Center
04:23PM 39.2192 -108.6589 209° Southwest 155 178 6,600 -420 Descending Denver Center
04:24PM 39.1828 -108.6339 152° Southeast 153 176 6,500 -480 Descending Denver Center
04:25PM 39.1592 -108.5894 124° Southeast 153 176 5,700 -780 Descending Denver Center
04:26PM 39.1350 -108.5456 125° Southeast 144 166 4,900 -480 Descending Denver Center
04:27PM 39.1142 -108.5061 124° Southeast 141 162 4,800 -120 Descending Denver Center